Time;durP1;ratioP1;P1;durP2;ratioP2;P2;SDS_P1;SDS_P2;PMS_P1;PMS_P2;Temp;Humidity;BMP_temperature;BMP_pressure;BME280_temperature;BME280_humidity;BME280_pressure;Samples;Min_cycle;Max_cycle;Signal;HPM_P1;HPM_P2
2022/11/02 00:00:54;;;;;;;65.93;6.97;;;7.20;99.90;;;;;;5080607;28;20519;-54
2022/11/02 00:03:20;;;;;;;77.50;8.07;;;7.20;99.90;;;;;;5072919;28;20444;-57
2022/11/02 00:05:45;;;;;;;83.30;8.10;;;7.20;99.90;;;;;;5090286;28;20432;-55
2022/11/02 00:08:11;;;;;;;38.10;7.10;;;7.10;99.90;;;;;;5073296;28;20216;-53
2022/11/02 00:10:36;;;;;;;76.80;8.33;;;7.20;99.90;;;;;;5076544;28;20185;-58
2022/11/02 00:13:02;;;;;;;14.67;5.23;;;7.10;99.90;;;;;;5083116;28;20193;-55
2022/11/02 00:15:31;;;;;;;60.70;7.47;;;7.20;99.90;;;;;;5082884;28;20170;-57
2022/11/02 00:18:23;;;;;;;69.83;7.57;;;7.20;99.90;;;;;;5081265;28;20628;-55
2022/11/02 00:20:49;;;;;;;61.40;6.43;;;7.20;99.90;;;;;;5076304;28;20463;-55
2022/11/02 00:23:15;;;;;;;67.73;6.77;;;7.20;99.90;;;;;;5081949;28;20458;-59
2022/11/02 00:25:44;;;;;;;49.87;6.70;;;7.20;99.90;;;;;;5082440;28;20228;-55
2022/11/02 00:28:09;;;;;;;33.47;5.23;;;7.20;99.90;;;;;;5079559;28;20692;-55
2022/11/02 00:30:36;;;;;;;55.47;6.10;;;7.20;99.90;;;;;;5082465;28;20430;-58
2022/11/02 00:33:02;;;;;;;49.60;6.23;;;7.10;99.90;;;;;;5079290;28;20212;-58
2022/11/02 00:35:28;;;;;;;29.37;5.23;;;7.20;99.90;;;;;;5061013;28;20424;-55
2022/11/02 00:37:54;;;;;;;56.97;5.37;;;7.20;99.90;;;;;;5077447;28;20268;-58
2022/11/02 00:40:19;;;;;;;21.87;5.10;;;7.10;99.90;;;;;;5083437;28;20209;-54
2022/11/02 00:42:45;;;;;;;20.60;4.70;;;7.10;99.90;;;;;;5081607;28;20757;-56
2022/11/02 00:45:10;;;;;;;10.10;4.60;;;7.10;99.90;;;;;;5065051;28;20273;-54
2022/11/02 00:47:36;;;;;;;10.17;4.80;;;7.00;99.90;;;;;;5077897;28;20711;-58
2022/11/02 00:50:02;;;;;;;11.23;4.47;;;7.00;99.90;;;;;;5067499;28;20180;-57
2022/11/02 00:52:28;;;;;;;39.37;4.40;;;6.90;99.90;;;;;;5080779;28;20591;-57
2022/11/02 00:54:53;;;;;;;12.03;4.50;;;6.90;99.90;;;;;;5084196;28;20526;-56
2022/11/02 00:57:19;;;;;;;10.97;4.07;;;6.80;99.90;;;;;;5080962;28;20265;-56
2022/11/02 00:59:45;;;;;;;5.67;4.13;;;6.80;99.90;;;;;;5079727;28;20181;-56
2022/11/02 01:02:10;;;;;;;3.77;3.43;;;6.80;99.90;;;;;;5078424;28;20723;-58
2022/11/02 01:04:36;;;;;;;5.40;4.13;;;6.70;99.90;;;;;;5079378;28;20674;-56
2022/11/02 01:07:02;;;;;;;6.47;4.43;;;6.80;99.90;;;;;;5090192;28;20202;-55
2022/11/02 01:09:28;;;;;;;4.10;3.40;;;6.70;99.90;;;;;;5083319;28;20205;-55
2022/11/02 01:11:54;;;;;;;9.23;3.27;;;6.70;99.90;;;;;;5086750;28;20862;-56
2022/11/02 01:14:20;;;;;;;8.03;3.50;;;6.70;99.90;;;;;;5090621;28;20617;-55
2022/11/02 01:16:46;;;;;;;15.43;4.30;;;6.80;99.90;;;;;;5090043;28;20186;-57
2022/11/02 01:19:12;;;;;;;13.30;3.90;;;6.70;99.90;;;;;;5080664;28;20482;-57
2022/11/02 01:21:37;;;;;;;16.50;4.10;;;6.70;99.90;;;;;;5075282;28;20447;-56
2022/11/02 01:24:03;;;;;;;42.27;5.37;;;6.60;99.90;;;;;;5076982;28;20309;-57
2022/11/02 01:26:29;;;;;;;20.77;4.40;;;6.60;99.90;;;;;;5077303;28;20242;-58
2022/11/02 01:28:54;;;;;;;41.20;6.00;;;6.60;99.90;;;;;;5077438;28;20641;-54
2022/11/02 01:31:20;;;;;;;10.90;4.37;;;6.50;99.90;;;;;;5079855;28;20235;-56
2022/11/02 01:33:46;;;;;;;76.43;6.10;;;6.40;99.90;;;;;;5074252;28;20202;-55
2022/11/02 01:36:14;;;;;;;31.10;5.70;;;6.40;99.90;;;;;;5081476;28;20180;-57
2022/11/02 01:38:40;;;;;;;6.53;4.80;;;6.40;99.90;;;;;;5086331;28;20435;-57
2022/11/02 01:41:06;;;;;;;11.80;4.10;;;6.40;99.90;;;;;;5084601;28;20435;-59
2022/11/02 01:43:34;;;;;;;41.57;5.83;;;6.40;99.90;;;;;;5085055;28;20459;-59
2022/11/02 01:46:24;;;;;;;98.33;7.10;;;6.50;99.90;;;;;;5081891;28;20990;-59
2022/11/02 01:49:07;;;;;;;31.70;5.70;;;6.40;99.90;;;;;;5081324;28;21651;-59
2022/11/02 01:51:38;;;;;;;22.10;5.47;;;6.40;99.90;;;;;;5079805;28;20470;-57
2022/11/02 01:54:11;;;;;;;24.17;4.67;;;6.40;99.90;;;;;;5058714;28;20456;-57
2022/11/02 01:56:39;;;;;;;10.10;4.47;;;6.30;99.90;;;;;;5077796;28;20560;-53
2022/11/02 01:59:10;;;;;;;17.80;4.80;;;6.40;99.90;;;;;;5082266;28;20447;-56
2022/11/02 02:01:36;;;;;;;30.80;4.67;;;6.40;99.90;;;;;;5082544;28;20522;-54
2022/11/02 02:04:01;;;;;;;11.60;5.00;;;6.40;99.90;;;;;;5080148;28;20896;-55
2022/11/02 02:06:27;;;;;;;10.50;4.93;;;6.40;99.90;;;;;;5078602;28;20189;-56
2022/11/02 02:08:55;;;;;;;11.07;4.70;;;6.50;99.90;;;;;;5080702;28;20931;-57
2022/11/02 02:11:32;;;;;;;16.03;5.27;;;6.50;99.90;;;;;;5086595;28;20471;-59
2022/11/02 02:14:12;;;;;;;23.77;5.57;;;6.50;99.90;;;;;;5080084;28;20451;-57
2022/11/02 02:17:11;;;;;;;10.73;5.33;;;6.60;99.90;;;;;;5059749;28;20448;-58
2022/11/02 02:19:37;;;;;;;9.73;4.50;;;6.50;99.90;;;;;;5079917;28;20732;-54
2022/11/02 02:22:40;;;;;;;12.67;5.60;;;6.50;99.90;;;;;;5082097;28;20489;-55
2022/11/02 02:25:44;;;;;;;13.03;5.80;;;6.50;99.90;;;;;;5081138;28;20178;-53
2022/11/02 02:28:29;;;;;;;10.30;4.40;;;6.50;99.90;;;;;;5077452;28;20479;-54
2022/11/02 02:30:55;;;;;;;11.90;4.50;;;6.50;99.90;;;;;;5076968;28;20571;-57
2022/11/02 02:33:57;;;;;;;9.90;4.60;;;6.50;99.90;;;;;;5075205;28;20942;-59
2022/11/02 02:36:59;;;;;;;12.83;4.17;;;6.50;99.90;;;;;;5000017;28;20185;-56
2022/11/02 02:39:55;;;;;;;11.90;4.87;;;6.50;99.90;;;;;;5075952;28;20424;-55
2022/11/02 02:42:30;;;;;;;13.47;4.20;;;6.50;99.90;;;;;;5081239;28;20511;-55
2022/11/02 02:45:22;;;;;;;12.30;4.53;;;6.50;99.90;;;;;;5085996;28;20517;-54
2022/11/02 02:47:56;;;;;;;11.13;5.20;;;6.50;99.90;;;;;;5082728;28;20468;-55
2022/11/02 02:50:27;;;;;;;4.70;3.73;;;6.50;99.90;;;;;;5081564;28;20435;-55
2022/11/02 02:52:54;;;;;;;6.80;4.40;;;6.50;99.90;;;;;;5079105;28;20973;-59
2022/11/02 02:55:26;;;;;;;6.27;4.50;;;6.50;99.90;;;;;;5088204;28;20435;-55
2022/11/02 02:57:53;;;;;;;5.23;4.33;;;6.50;99.90;;;;;;5079450;28;20428;-56
2022/11/02 03:00:19;;;;;;;6.53;4.43;;;6.50;99.90;;;;;;5063832;28;20459;-53
2022/11/02 03:03:01;;;;;;;5.23;4.30;;;6.60;99.90;;;;;;5079326;28;20978;-59
2022/11/02 03:05:35;;;;;;;6.30;4.50;;;6.60;99.90;;;;;;5078831;28;20687;-57
2022/11/02 03:08:08;;;;;;;5.13;3.87;;;6.70;99.90;;;;;;5082388;28;21090;-57
2022/11/02 03:10:44;;;;;;;4.30;3.90;;;6.70;99.90;;;;;;5081675;28;20440;-55
2022/11/02 03:13:46;;;;;;;6.23;4.30;;;6.70;99.90;;;;;;5080605;28;20459;-57
2022/11/02 03:16:26;;;;;;;6.73;4.20;;;6.70;99.90;;;;;;5082083;28;20432;-58
2022/11/02 03:19:20;;;;;;;7.67;4.97;;;6.70;99.90;;;;;;5081831;28;20966;-55
2022/11/02 03:21:53;;;;;;;7.07;4.70;;;6.70;99.90;;;;;;5044229;28;20486;-55
2022/11/02 03:24:48;;;;;;;6.33;4.53;;;6.60;99.90;;;;;;5075790;28;21244;-57
2022/11/02 03:27:46;;;;;;;6.27;4.17;;;6.60;99.90;;;;;;5076315;28;20540;-55
2022/11/02 03:30:18;;;;;;;6.90;4.60;;;6.60;99.90;;;;;;5063839;28;20511;-54
2022/11/02 03:32:56;;;;;;;5.70;4.30;;;6.50;99.90;;;;;;5081334;28;21014;-55
2022/11/02 03:35:43;;;;;;;5.50;4.70;;;6.50;99.90;;;;;;5081422;28;20450;-55
2022/11/02 03:38:14;;;;;;;9.43;4.67;;;6.40;99.90;;;;;;5083318;28;20420;-56
2022/11/02 03:40:47;;;;;;;6.13;4.20;;;6.40;99.90;;;;;;5088286;28;20485;-55
2022/11/02 03:43:15;;;;;;;5.00;3.90;;;6.40;99.90;;;;;;5076050;28;20450;-56
2022/11/02 03:45:50;;;;;;;7.10;4.73;;;6.40;99.90;;;;;;5085676;28;20473;-57
2022/11/02 03:48:17;;;;;;;4.20;3.87;;;6.40;99.90;;;;;;5075753;28;20478;-57
2022/11/02 03:50:49;;;;;;;5.53;4.50;;;6.30;99.90;;;;;;5076562;28;20432;-55
2022/11/02 03:53:24;;;;;;;8.07;5.00;;;6.30;99.90;;;;;;5077236;28;20988;-55
2022/11/02 03:55:59;;;;;;;15.00;4.67;;;6.30;99.90;;;;;;5079803;28;20517;-57
2022/11/02 03:58:25;;;;;;;49.00;6.73;;;6.30;99.90;;;;;;5082196;28;20431;-55
2022/11/02 04:00:58;;;;;;;79.90;6.47;;;6.30;99.90;;;;;;5081731;28;20447;-55
2022/11/02 04:03:24;;;;;;;52.37;5.43;;;6.30;99.90;;;;;;5081725;28;20197;-57
2022/11/02 04:05:50;;;;;;;15.47;3.80;;;6.20;99.90;;;;;;5077084;28;20439;-55
2022/11/02 04:08:28;;;;;;;10.53;4.17;;;6.20;99.90;;;;;;5077817;28;20766;-56
2022/11/02 04:16:22;;;;;;;38.80;4.93;;;6.10;99.90;;;;;;5080434;28;20458;-56
2022/11/02 04:21:32;;;;;;;12.43;3.67;;;6.10;99.90;;;;;;5079663;28;20532;-57
2022/11/02 04:26:42;;;;;;;14.20;3.83;;;6.10;99.90;;;;;;5077259;28;20279;-57
2022/11/02 04:29:08;;;;;;;17.13;4.40;;;6.00;99.90;;;;;;5080319;28;20431;-54
2022/11/02 04:31:34;;;;;;;8.13;4.57;;;6.00;99.90;;;;;;5076684;28;20451;-53
2022/11/02 04:33:59;;;;;;;17.43;3.90;;;6.00;99.90;;;;;;5089803;22;20487;-58
2022/11/02 04:36:27;;;;;;;10.40;3.73;;;6.00;99.90;;;;;;5082623;28;20166;-59
2022/11/02 04:38:53;;;;;;;26.43;4.10;;;5.90;99.90;;;;;;5083312;28;20235;-59
2022/11/02 04:44:18;;;;;;;15.33;4.03;;;5.90;99.90;;;;;;5052009;28;20283;-58
2022/11/02 04:46:44;;;;;;;7.23;3.70;;;5.90;99.90;;;;;;5100560;28;21040;-59
2022/11/02 04:49:10;;;;;;;5.60;3.70;;;5.90;99.90;;;;;;5099044;28;20593;-59
2022/11/02 04:51:38;;;;;;;3.90;3.50;;;5.80;99.90;;;;;;5100713;28;20174;-58
2022/11/02 04:54:05;;;;;;;4.70;4.30;;;5.80;99.90;;;;;;5091713;28;20449;-59
2022/11/02 04:56:30;;;;;;;3.73;3.43;;;5.80;99.90;;;;;;5094741;28;20419;-59
2022/11/02 04:58:58;;;;;;;3.90;3.53;;;5.80;99.90;;;;;;5099048;28;20476;-59
2022/11/02 05:01:26;;;;;;;4.10;3.60;;;5.80;99.90;;;;;;5098078;28;20218;-60
2022/11/02 05:03:54;;;;;;;3.57;3.23;;;5.80;99.90;;;;;;5082765;28;20762;-59
2022/11/02 05:06:21;;;;;;;5.37;3.27;;;5.80;99.90;;;;;;5090055;28;20434;-58
2022/11/02 05:08:47;;;;;;;5.43;4.37;;;5.70;99.90;;;;;;5102777;28;20555;-58
2022/11/02 05:11:13;;;;;;;5.77;4.00;;;5.70;99.90;;;;;;5106570;28;20517;-57
2022/11/02 05:13:40;;;;;;;20.80;4.30;;;5.70;99.90;;;;;;5083917;28;21653;-58
2022/11/02 05:16:06;;;;;;;5.40;3.63;;;5.70;99.90;;;;;;5104615;27;20161;-57
2022/11/02 05:18:32;;;;;;;42.30;5.30;;;5.70;99.90;;;;;;5089552;28;20526;-57
2022/11/02 05:21:00;;;;;;;12.47;4.10;;;5.70;99.90;;;;;;5101600;28;20787;-59
2022/11/02 05:23:26;;;;;;;8.20;4.60;;;5.60;99.90;;;;;;5101271;28;20434;-61
2022/11/02 05:25:56;;;;;;;19.13;4.60;;;5.50;99.90;;;;;;5101711;28;21186;-61
2022/11/02 05:28:21;;;;;;;9.60;4.60;;;5.60;99.90;;;;;;5098060;28;20466;-60
2022/11/02 05:30:47;;;;;;;7.50;4.60;;;5.50;99.90;;;;;;5103376;28;20427;-59
2022/11/02 05:33:13;;;;;;;33.50;5.83;;;5.50;99.90;;;;;;5101167;28;20223;-61
2022/11/02 05:35:38;;;;;;;11.77;5.23;;;5.50;99.90;;;;;;5102167;28;20250;-61
2022/11/02 05:38:04;;;;;;;41.13;7.10;;;5.50;99.90;;;;;;5109923;27;20227;-61
2022/11/02 05:40:32;;;;;;;45.00;5.63;;;5.50;99.90;;;;;;5102422;27;20256;-61
2022/11/02 05:42:59;;;;;;;38.33;4.97;;;5.50;99.90;;;;;;5099799;28;20452;-61
2022/11/02 05:45:25;;;;;;;5.83;3.67;;;5.50;99.90;;;;;;5102276;27;20458;-55
2022/11/02 05:47:50;;;;;;;9.10;3.60;;;5.50;99.90;;;;;;5114417;27;20457;-61
2022/11/02 05:50:16;;;;;;;18.70;5.50;;;5.50;99.90;;;;;;5105606;27;20169;-61
2022/11/02 05:52:42;;;;;;;13.70;5.23;;;5.50;99.90;;;;;;5100928;28;20177;-60
2022/11/02 05:55:08;;;;;;;19.47;3.97;;;5.40;99.90;;;;;;5106675;27;20189;-61
2022/11/02 05:57:33;;;;;;;21.33;5.20;;;5.40;99.90;;;;;;5110036;28;20177;-60
2022/11/02 05:59:59;;;;;;;32.27;5.00;;;5.40;99.90;;;;;;5102200;27;20181;-59
2022/11/02 06:02:25;;;;;;;45.73;5.30;;;5.40;99.90;;;;;;5100095;27;20181;-60
2022/11/02 06:04:51;;;;;;;66.63;5.60;;;5.40;99.90;;;;;;5102146;28;20955;-60
2022/11/02 06:07:16;;;;;;;34.70;4.67;;;5.40;99.90;;;;;;5102872;27;20193;-60
2022/11/02 06:09:42;;;;;;;8.23;3.87;;;5.30;99.90;;;;;;5100113;28;20226;-60
2022/11/02 06:12:07;;;;;;;18.50;3.83;;;5.30;99.90;;;;;;5103846;28;20169;-60
2022/11/02 06:14:33;;;;;;;12.47;3.90;;;5.30;99.90;;;;;;5112112;28;20200;-60
2022/11/02 06:16:59;;;;;;;8.33;3.50;;;5.30;99.90;;;;;;5109723;28;20205;-61
2022/11/02 06:19:24;;;;;;;77.47;4.90;;;5.40;99.90;;;;;;5107578;28;20268;-60
2022/11/02 06:21:50;;;;;;;39.73;5.30;;;5.40;99.90;;;;;;5101159;28;20180;-60
2022/11/02 06:24:15;;;;;;;87.67;6.03;;;5.40;99.90;;;;;;5091409;28;20218;-61
2022/11/02 06:26:41;;;;;;;41.77;4.50;;;5.40;99.90;;;;;;5106609;28;20180;-60
2022/11/02 06:29:07;;;;;;;57.30;5.50;;;5.40;99.90;;;;;;5104009;28;20166;-60
2022/11/02 06:31:33;;;;;;;9.80;3.73;;;5.30;99.90;;;;;;5108536;27;20422;-60
2022/11/02 06:33:58;;;;;;;11.83;3.10;;;5.40;99.90;;;;;;5109409;28;20343;-59
2022/11/02 06:36:24;;;;;;;7.90;3.93;;;5.40;99.90;;;;;;5105131;28;20231;-60
2022/11/02 06:38:50;;;;;;;4.00;3.30;;;5.40;99.90;;;;;;5108798;28;20184;-60
2022/11/02 06:41:16;;;;;;;10.47;3.40;;;5.40;99.90;;;;;;5093043;28;20415;-60
2022/11/02 06:43:41;;;;;;;4.90;3.60;;;5.40;99.90;;;;;;5104391;28;20186;-60
2022/11/02 06:46:07;;;;;;;6.27;3.33;;;5.50;99.90;;;;;;5104037;28;20170;-59
2022/11/02 06:48:33;;;;;;;3.33;3.03;;;5.50;99.90;;;;;;5103716;27;20577;-60
2022/11/02 06:50:59;;;;;;;12.37;3.50;;;5.60;99.90;;;;;;5107652;27;20165;-60
2022/11/02 06:53:25;;;;;;;7.50;3.83;;;5.60;99.90;;;;;;5100359;28;20177;-60
2022/11/02 06:55:55;;;;;;;10.77;3.93;;;5.60;99.90;;;;;;5102227;28;20218;-60
2022/11/02 06:58:22;;;;;;;7.33;3.57;;;5.70;99.90;;;;;;5104458;27;20434;-60
2022/11/02 07:00:48;;;;;;;8.90;3.40;;;5.70;99.90;;;;;;5098618;27;20963;-60
2022/11/02 07:03:13;;;;;;;3.57;3.20;;;5.70;99.90;;;;;;5089019;28;20430;-60
2022/11/02 07:05:39;;;;;;;12.93;3.10;;;5.70;99.90;;;;;;5107348;27;20445;-60
2022/11/02 07:08:05;;;;;;;8.53;3.37;;;5.80;99.90;;;;;;5092983;27;20274;-60
2022/11/02 07:10:31;;;;;;;5.00;3.60;;;5.70;99.90;;;;;;5098614;27;20201;-60
2022/11/02 07:12:57;;;;;;;6.27;4.30;;;5.80;99.90;;;;;;5107005;27;20239;-60
2022/11/02 07:15:24;;;;;;;7.40;3.50;;;5.80;99.90;;;;;;5100680;28;20505;-60
2022/11/02 07:17:50;;;;;;;5.40;3.20;;;5.80;99.90;;;;;;5109081;28;20422;-60
2022/11/02 07:20:16;;;;;;;7.60;3.20;;;5.80;99.90;;;;;;5104820;27;21168;-60
2022/11/02 07:22:50;;;;;;;5.93;4.33;;;5.90;99.90;;;;;;5089888;28;20511;-60
2022/11/02 07:25:16;;;;;;;5.67;4.53;;;5.90;99.90;;;;;;5100561;28;20257;-60
2022/11/02 07:27:41;;;;;;;6.33;5.07;;;5.90;99.90;;;;;;5108910;27;20460;-60
2022/11/02 07:30:07;;;;;;;8.73;5.33;;;5.90;99.90;;;;;;5100260;28;20561;-60
2022/11/02 07:32:43;;;;;;;11.77;4.80;;;6.00;99.90;;;;;;5095285;28;20187;-60
2022/11/02 07:35:11;;;;;;;11.20;4.70;;;6.00;99.90;;;;;;5088239;28;20502;-60
2022/11/02 07:37:37;;;;;;;11.03;5.00;;;6.10;99.90;;;;;;5104397;28;20863;-60
2022/11/02 07:40:04;;;;;;;8.17;5.03;;;6.10;99.90;;;;;;5112701;27;20430;-60
2022/11/02 07:42:29;;;;;;;11.03;5.17;;;6.20;99.90;;;;;;5102713;27;20796;-60
2022/11/02 07:44:55;;;;;;;9.93;5.17;;;6.20;99.90;;;;;;5106835;28;20450;-60
2022/11/02 07:47:21;;;;;;;7.50;4.77;;;6.20;99.90;;;;;;5099359;28;20243;-61
2022/11/02 07:49:46;;;;;;;5.70;4.63;;;6.30;99.90;;;;;;5094801;28;20757;-61
2022/11/02 07:52:12;;;;;;;14.17;5.87;;;6.30;99.90;;;;;;5104671;28;20223;-60
2022/11/02 07:54:38;;;;;;;9.87;5.97;;;6.40;99.90;;;;;;5100783;27;20201;-60
2022/11/02 07:57:03;;;;;;;7.40;5.10;;;6.50;99.90;;;;;;5108398;27;20176;-61
2022/11/02 07:59:29;;;;;;;9.37;4.77;;;6.50;99.90;;;;;;5103569;28;20676;-60
2022/11/02 08:01:54;;;;;;;10.10;5.60;;;6.50;99.90;;;;;;5103809;28;20230;-60
2022/11/02 08:04:20;;;;;;;9.73;6.17;;;6.60;99.90;;;;;;5099727;28;20249;-60
2022/11/02 08:06:45;;;;;;;32.57;11.60;;;6.70;99.90;;;;;;5108886;28;20185;-60
2022/11/02 08:09:11;;;;;;;37.43;10.23;;;6.70;99.90;;;;;;5102446;28;20798;-60
2022/11/02 08:11:37;;;;;;;44.13;9.17;;;6.70;99.90;;;;;;5107097;28;20173;-60
2022/11/02 08:14:03;;;;;;;34.93;7.90;;;6.70;99.90;;;;;;5100208;28;20686;-60
2022/11/02 08:16:29;;;;;;;19.47;7.30;;;6.70;99.90;;;;;;5107039;28;20252;-59
2022/11/02 08:18:57;;;;;;;17.37;7.50;;;6.70;99.90;;;;;;5098887;28;20184;-61
2022/11/02 08:21:23;;;;;;;40.47;9.47;;;6.80;99.90;;;;;;5100230;28;20507;-60
2022/11/02 08:23:48;;;;;;;11.47;6.73;;;6.80;99.90;;;;;;5097621;28;20451;-60
2022/11/02 08:26:14;;;;;;;11.97;7.13;;;6.90;99.90;;;;;;5097219;28;20177;-60
2022/11/02 08:28:40;;;;;;;12.87;7.77;;;7.00;99.90;;;;;;5107164;28;20610;-61
2022/11/02 08:31:10;;;;;;;16.83;6.90;;;7.10;99.90;;;;;;5108275;28;20175;-61
2022/11/02 08:33:36;;;;;;;23.43;8.50;;;7.20;99.90;;;;;;5105652;28;20280;-59
2022/11/02 08:36:03;;;;;;;20.40;7.20;;;7.40;99.90;;;;;;5106222;28;20534;-61
2022/11/02 08:38:30;;;;;;;17.03;8.37;;;7.50;99.90;;;;;;5092765;28;20611;-60
2022/11/02 08:40:55;;;;;;;11.57;7.60;;;7.70;99.90;;;;;;5108130;28;20431;-60
2022/11/02 08:43:21;;;;;;;10.47;6.80;;;7.80;99.90;;;;;;5109234;28;20441;-59
2022/11/02 08:45:46;;;;;;;14.80;6.30;;;7.90;99.90;;;;;;5104669;27;20202;-60
2022/11/02 08:48:12;;;;;;;14.13;7.13;;;8.10;99.90;;;;;;5106092;27;20197;-60
2022/11/02 08:50:38;;;;;;;14.20;7.03;;;8.10;99.90;;;;;;5116773;27;20189;-60
2022/11/02 08:53:04;;;;;;;12.23;6.80;;;8.30;99.90;;;;;;5109899;27;20169;-61
2022/11/02 08:55:30;;;;;;;11.60;6.70;;;8.30;99.90;;;;;;5106755;27;20189;-60
2022/11/02 08:57:57;;;;;;;11.03;6.70;;;8.40;99.90;;;;;;5109577;27;20822;-60
2022/11/02 09:00:28;;;;;;;13.70;6.53;;;8.60;99.90;;;;;;5093151;28;20458;-60
2022/11/02 09:03:04;;;;;;;14.00;6.87;;;8.70;99.90;;;;;;5106027;27;20424;-60
2022/11/02 09:05:33;;;;;;;9.10;5.90;;;8.80;99.90;;;;;;5107191;27;20448;-60
2022/11/02 09:08:01;;;;;;;10.53;6.30;;;8.80;99.90;;;;;;5115001;27;20485;-60
2022/11/02 09:10:28;;;;;;;8.70;5.97;;;8.80;99.90;;;;;;5110100;27;20771;-60
2022/11/02 09:12:54;;;;;;;15.47;6.87;;;8.80;99.90;;;;;;5109873;27;20423;-60
2022/11/02 09:15:20;;;;;;;10.70;6.10;;;8.80;99.90;;;;;;5100536;28;20449;-60
2022/11/02 09:17:49;;;;;;;11.70;7.40;;;8.90;99.90;;;;;;5106537;28;20247;-60
2022/11/02 09:20:16;;;;;;;10.40;7.20;;;8.90;99.90;;;;;;5104768;28;20208;-60
2022/11/02 09:22:42;;;;;;;14.30;7.27;;;9.00;99.90;;;;;;5108041;28;20435;-60
2022/11/02 09:25:08;;;;;;;14.33;6.73;;;9.00;99.90;;;;;;5104870;28;20864;-60
2022/11/02 09:27:34;;;;;;;12.37;6.30;;;9.10;99.90;;;;;;5102527;28;20472;-60
2022/11/02 09:30:00;;;;;;;9.70;6.60;;;9.10;99.90;;;;;;5107440;28;20427;-60
2022/11/02 09:32:26;;;;;;;12.13;6.50;;;9.20;99.90;;;;;;5089655;28;20200;-60
2022/11/02 09:34:51;;;;;;;6.70;4.30;;;9.30;99.90;;;;;;5108323;28;20201;-60
2022/11/02 09:37:17;;;;;;;9.93;6.37;;;9.40;99.90;;;;;;5102512;28;20427;-61
2022/11/02 09:39:43;;;;;;;10.50;6.30;;;9.50;99.90;;;;;;5105229;28;20539;-61
2022/11/02 09:42:26;;;;;;;10.80;5.70;;;9.70;99.90;;;;;;5104221;28;20177;-61
2022/11/02 09:45:05;;;;;;;13.50;5.50;;;9.90;99.90;;;;;;5102647;28;20229;-60
2022/11/02 09:47:39;;;;;;;8.10;3.07;;;10.10;99.90;;;;;;5100769;28;20463;-60
2022/11/02 09:50:05;;;;;;;16.10;5.40;;;10.20;99.90;;;;;;5102178;28;20517;-61
2022/11/02 09:52:35;;;;;;;5.77;3.40;;;10.40;99.90;;;;;;5102050;28;20424;-61
2022/11/02 09:55:05;;;;;;;5.53;2.10;;;10.50;99.90;;;;;;5103225;28;20446;-60
2022/11/02 09:57:32;;;;;;;6.10;1.93;;;10.70;99.90;;;;;;5104926;27;20521;-61
2022/11/02 09:59:58;;;;;;;4.60;2.20;;;10.80;99.90;;;;;;5105770;27;20435;-61
2022/11/02 10:02:36;;;;;;;9.23;2.30;;;10.90;99.90;;;;;;5102989;27;20954;-61
2022/11/02 10:05:10;;;;;;;2.50;1.70;;;11.10;99.90;;;;;;5099624;28;20960;-59
2022/11/02 10:08:13;;;;;;;6.30;2.10;;;11.20;99.90;;;;;;5103361;28;20461;-60
2022/11/02 10:10:54;;;;;;;3.83;1.90;;;11.40;99.90;;;;;;5103886;28;20442;-60
2022/11/02 10:13:47;;;;;;;5.83;1.90;;;11.50;99.90;;;;;;5083312;28;20415;-59
2022/11/02 10:16:15;;;;;;;5.27;1.63;;;11.50;99.90;;;;;;5093032;28;20425;-61
2022/11/02 10:18:42;;;;;;;6.23;2.07;;;11.60;99.90;;;;;;5101513;28;20956;-61
2022/11/02 10:21:14;;;;;;;5.23;1.90;;;11.70;99.90;;;;;;5099593;28;20422;-60
2022/11/02 10:23:51;;;;;;;8.47;1.77;;;11.70;99.90;;;;;;5100634;28;20442;-61
2022/11/02 10:26:42;;;;;;;6.70;1.90;;;11.80;99.90;;;;;;5101335;27;20427;-60
2022/11/02 10:29:49;;;;;;;4.40;2.13;;;11.80;99.90;;;;;;5101831;27;20423;-60
2022/11/02 10:32:16;;;;;;;7.60;2.20;;;11.90;99.90;;;;;;5070410;27;20439;-61
2022/11/02 10:34:43;;;;;;;3.13;1.47;;;12.00;99.90;;;;;;5102803;28;20975;-61
2022/11/02 10:37:25;;;;;;;3.67;1.80;;;12.10;99.90;;;;;;5105944;27;21006;-60
2022/11/02 10:40:02;;;;;;;4.53;1.87;;;12.10;99.90;;;;;;5102108;28;20472;-61
2022/11/02 10:42:59;;;;;;;5.27;1.90;;;12.20;99.90;;;;;;5084122;28;20437;-61
2022/11/02 10:45:51;;;;;;;15.23;1.80;;;12.20;99.90;;;;;;5085134;27;21958;-61
2022/11/02 10:48:30;;;;;;;7.30;1.90;;;12.30;99.90;;;;;;5102798;27;20454;-61
2022/11/02 10:51:16;;;;;;;3.43;1.90;;;12.40;99.90;;;;;;5101201;27;20435;-60
2022/11/02 10:53:46;;;;;;;5.00;2.03;;;12.50;99.90;;;;;;5096137;28;20478;-60
2022/11/02 10:56:15;;;;;;;4.43;2.03;;;12.60;99.90;;;;;;5099018;28;20418;-61
2022/11/02 10:58:48;;;;;;;5.47;2.00;;;12.60;99.90;;;;;;5083714;28;20998;-61
2022/11/02 11:01:14;;;;;;;4.80;2.07;;;12.70;99.30;;;;;;5103389;27;20443;-61
2022/11/02 11:03:58;;;;;;;4.40;1.93;;;12.70;97.40;;;;;;5101385;27;21352;-61
2022/11/02 11:06:30;;;;;;;4.37;1.67;;;12.80;98.10;;;;;;5101635;28;20707;-61
2022/11/02 11:09:02;;;;;;;2.90;1.03;;;12.80;97.50;;;;;;5100925;28;21201;-60
2022/11/02 11:11:32;;;;;;;8.40;1.83;;;12.80;96.80;;;;;;5098230;27;20439;-61
2022/11/02 11:14:16;;;;;;;4.50;1.57;;;12.80;96.00;;;;;;5100429;27;20979;-61
2022/11/02 11:16:45;;;;;;;5.00;1.80;;;12.90;94.60;;;;;;5102475;27;20990;-61
2022/11/02 11:19:40;;;;;;;5.20;1.80;;;12.90;96.30;;;;;;5102115;28;20431;-59
2022/11/02 11:22:31;;;;;;;6.27;1.87;;;12.90;93.60;;;;;;5067407;28;20435;-61
2022/11/02 11:25:26;;;;;;;5.67;1.90;;;13.00;90.30;;;;;;5103437;27;20686;-61
2022/11/02 11:27:57;;;;;;;2.30;1.57;;;13.10;91.50;;;;;;5101185;28;20455;-61
2022/11/02 11:30:30;;;;;;;6.60;1.77;;;13.20;93.00;;;;;;5101960;28;20427;-61
2022/11/02 11:32:57;;;;;;;4.40;1.60;;;13.10;88.30;;;;;;5099510;28;20399;-60
2022/11/02 11:35:33;;;;;;;4.33;2.10;;;13.20;84.30;;;;;;5101941;28;20458;-61
2022/11/02 11:38:06;;;;;;;2.60;1.63;;;13.10;88.20;;;;;;5102590;27;20426;-60
2022/11/02 11:40:35;;;;;;;6.13;1.70;;;13.20;89.20;;;;;;5107203;27;20437;-61
2022/11/02 11:43:03;;;;;;;4.00;1.60;;;13.20;83.40;;;;;;5101913;28;20443;-60
2022/11/02 11:45:31;;;;;;;6.07;2.00;;;13.30;82.80;;;;;;5101795;28;20438;-60
2022/11/02 11:48:03;;;;;;;4.70;1.67;;;13.40;81.30;;;;;;5101339;27;20819;-60
2022/11/02 11:50:28;;;;;;;5.67;1.80;;;13.60;80.40;;;;;;5102324;27;20455;-61
2022/11/02 11:53:18;;;;;;;8.00;2.10;;;13.80;80.30;;;;;;5099382;28;20449;-61
2022/11/02 11:55:50;;;;;;;7.60;2.23;;;14.00;76.80;;;;;;5103222;28;20219;-61
2022/11/02 11:58:22;;;;;;;3.53;1.70;;;14.10;70.50;;;;;;5099578;28;20459;-61
2022/11/02 12:01:10;;;;;;;3.90;1.70;;;14.20;72.30;;;;;;5102198;28;20425;-61
2022/11/02 12:03:49;;;;;;;3.53;1.50;;;14.40;72.00;;;;;;5098796;28;20492;-61
2022/11/02 12:06:40;;;;;;;2.60;1.60;;;14.50;72.20;;;;;;5081984;28;20804;-60
2022/11/02 12:09:20;;;;;;;9.77;1.83;;;14.70;72.80;;;;;;5081734;28;20795;-60
2022/11/02 12:11:56;;;;;;;6.73;3.37;;;14.70;71.00;;;;;;5095537;28;20423;-58
2022/11/02 12:15:04;;;;;;;4.77;1.97;;;14.80;71.80;;;;;;5097243;28;21238;-60
2022/11/02 12:17:48;;;;;;;10.70;2.07;;;14.80;67.30;;;;;;5098411;28;20431;-61
2022/11/02 12:20:40;;;;;;;4.50;1.50;;;14.70;65.60;;;;;;5097339;28;20434;-61
2022/11/02 12:23:44;;;;;;;6.33;1.67;;;14.60;66.80;;;;;;5100490;28;20897;-61
2022/11/02 12:26:30;;;;;;;4.67;1.70;;;14.50;67.30;;;;;;5099799;28;20439;-61
2022/11/02 12:29:01;;;;;;;3.13;1.63;;;14.50;68.00;;;;;;5102149;28;20510;-60
2022/11/02 12:31:37;;;;;;;3.37;1.87;;;14.80;67.90;;;;;;5099877;28;20426;-61
2022/11/02 12:34:18;;;;;;;5.37;1.87;;;14.90;67.20;;;;;;5099425;28;20466;-61
2022/11/02 12:36:58;;;;;;;3.83;1.50;;;14.80;64.10;;;;;;5102411;28;20426;-61
2022/11/02 12:39:47;;;;;;;6.63;1.70;;;14.50;63.50;;;;;;5101125;28;20502;-62
2022/11/02 12:42:31;;;;;;;5.30;1.60;;;14.40;65.30;;;;;;5064249;28;20433;-62
2022/11/02 12:45:11;;;;;;;4.30;1.90;;;14.30;67.70;;;;;;5100672;28;20492;-61
2022/11/02 12:47:49;;;;;;;7.97;3.13;;;14.20;68.30;;;;;;5096657;28;20458;-62
2022/11/02 12:50:32;;;;;;;7.30;1.67;;;14.10;68.60;;;;;;5100108;28;20430;-62
2022/11/02 12:53:17;;;;;;;6.33;1.60;;;14.10;68.30;;;;;;5098974;28;20771;-62
2022/11/02 12:55:49;;;;;;;5.70;2.03;;;14.00;65.50;;;;;;5080828;28;20434;-61
2022/11/02 12:58:26;;;;;;;5.27;2.13;;;14.00;63.40;;;;;;5100494;28;20507;-62
2022/11/02 13:01:04;;;;;;;3.07;1.70;;;13.90;65.10;;;;;;5100666;28;20435;-61
2022/11/02 13:03:50;;;;;;;3.50;1.73;;;13.80;65.90;;;;;;5082488;28;20435;-61
2022/11/02 13:06:23;;;;;;;7.30;2.73;;;13.70;65.50;;;;;;5103551;28;20403;-61
2022/11/02 13:08:58;;;;;;;6.93;2.00;;;13.60;66.20;;;;;;5104529;28;20547;-64
2022/11/02 13:11:43;;;;;;;5.23;1.50;;;13.50;65.20;;;;;;5103720;28;20893;-61
2022/11/02 13:14:19;;;;;;;4.50;1.97;;;13.40;67.10;;;;;;5100965;28;20435;-62
2022/11/02 13:17:17;;;;;;;3.90;1.47;;;13.40;68.10;;;;;;5103236;28;20415;-61
2022/11/02 13:19:47;;;;;;;4.00;1.47;;;13.30;69.90;;;;;;5032792;28;20454;-61
2022/11/02 13:22:17;;;;;;;5.73;1.70;;;13.20;70.30;;;;;;5101878;28;20441;-61
2022/11/02 13:25:15;;;;;;;4.53;1.50;;;13.10;70.80;;;;;;5101025;28;20450;-61
2022/11/02 13:28:03;;;;;;;3.67;1.33;;;13.10;71.50;;;;;;5094034;27;20878;-61